MSC Lisbon — A8LL9 — position and weather

sailwx.info

Track history (hours):
 
Tides and Currents Weather Stations Pressure Air Temp Water Temp Dewpoint Dewpoint Depression Visibility Wind Speed Wind Dir Waves Ship Positions

MSC Lisbon

Last reported at 2014-Nov-26 02:31 UTC. Time now 2014-Nov-26 11:21 UTC.
Position N 29°46' E 122°25'.

Length 336.7 m; beam 45.6 m; draft 15.3 m.

Type: Ship (hazmat cat A). MMSI: 636091276.

Date/timePositionNaut miles runAvg speedWind from/ knotsBaromVisibWave heightAir tempDewpointWater temp
2014-Nov-26 02:31N 29°46' E 122°25'3 3.6
2014-Nov-26 01:33N 29°45' E 122°29'1212.4
2014-Nov-26 00:33N 29°47' E 122°43'  
2014-Nov-18 13:31N 29°44' E 122°40'1111.4
2014-Nov-18 12:34N 29°42' E 122°28'1211.7
2014-Nov-18 11:33N 29°47' E 122°16'7 1.4
2014-Nov-18 06:23N 29°49' E 122°08'0 0.0
2014-Nov-18 03:17N 29°49' E 122°08'0 0.0
2014-Nov-17 23:28N 29°49' E 122°08'0 0.1
2014-Nov-17 21:10N 29°49' E 122°08'0 0.0
2014-Nov-17 19:16N 29°49' E 122°08'0 0.0
2014-Nov-17 18:04N 29°49' E 122°08'0 0.0
2014-Nov-17 11:04N 29°49' E 122°08'2 3.1
2014-Nov-17 10:33N 29°48' E 122°09'1 0.3
2014-Nov-17 07:09N 29°48' E 122°10'0 0.0
2014-Nov-16 20:21N 29°48' E 122°10'0 0.0
2014-Nov-16 19:33N 29°48' E 122°10'0 0.0
2014-Nov-16 18:33N 29°48' E 122°10'0 0.0
2014-Nov-16 16:14N 29°48' E 122°10'  
Track history (hours):
 
Tides and Currents Weather Stations Pressure Air Temp Water Temp Dewpoint Dewpoint Depression Visibility Wind Speed Wind Dir Waves Ship Positions

MSC Lisbon

Last reported at 2014-Nov-26 02:31 UTC. Time now 2014-Nov-26 11:21 UTC.
Position N 29°46' E 122°25'.

Length 336.7 m; beam 45.6 m; draft 15.3 m.

Type: Ship (hazmat cat A). MMSI: 636091276.

Date/timePositionNaut miles runAvg speedWind from/ knotsBaromVisibWave heightAir tempDewpointWater temp
2014-Nov-26 02:31N 29°46' E 122°25'3 3.6
2014-Nov-26 01:33N 29°45' E 122°29'1212.4
2014-Nov-26 00:33N 29°47' E 122°43'  
2014-Nov-18 13:31N 29°44' E 122°40'1111.4
2014-Nov-18 12:34N 29°42' E 122°28'1211.7
2014-Nov-18 11:33N 29°47' E 122°16'7 1.4
2014-Nov-18 06:23N 29°49' E 122°08'0 0.0
2014-Nov-18 03:17N 29°49' E 122°08'0 0.0
2014-Nov-17 23:28N 29°49' E 122°08'0 0.1
2014-Nov-17 21:10N 29°49' E 122°08'0 0.0
2014-Nov-17 19:16N 29°49' E 122°08'0 0.0
2014-Nov-17 18:04N 29°49' E 122°08'0 0.0
2014-Nov-17 11:04N 29°49' E 122°08'2 3.1
2014-Nov-17 10:33N 29°48' E 122°09'1 0.3
2014-Nov-17 07:09N 29°48' E 122°10'0 0.0
2014-Nov-16 20:21N 29°48' E 122°10'0 0.0
2014-Nov-16 19:33N 29°48' E 122°10'0 0.0
2014-Nov-16 18:33N 29°48' E 122°10'0 0.0
2014-Nov-16 16:14N 29°48' E 122°10'  

Dump ship's entire track history